SELKV ESGV-ESGJ
Flight info
| Callsign | SELKV |
|---|---|
| Flight time | 0h 42m |
| Altitude | 5000 |
| Route | UMIXA |
| Aircraft | P28A/L-SFG/C |
Departure
| Time | 2026-05-07 12:53 |
|---|---|
| Airport | Varberg Getterön Airfield (ESGV) |
Arrival
| Time | 2026-05-07 13:35 |
|---|---|
| Airport | Jönköping Airport (ESGJ) |
| Time | Latitude | Longitude | Altitude | Speed | Heading |
|---|---|---|---|---|---|
| 2026-05-07 12:42 | 57.12253 | 12.22606 | 10 ft | 0 kts | 32° |
| 2026-05-07 12:48 | 57.12255 | 12.22608 | 10 ft | 2 kts | 36° |
| 2026-05-07 12:48 | 57.12290 | 12.22709 | 10 ft | 16 kts | 65° |
| 2026-05-07 12:49 | 57.12313 | 12.22955 | 10 ft | 18 kts | 85° |
| 2026-05-07 12:49 | 57.12320 | 12.23101 | 10 ft | 9 kts | 81° |
| 2026-05-07 12:49 | 57.12333 | 12.23192 | 10 ft | 8 kts | 66° |
| 2026-05-07 12:49 | 57.12369 | 12.23283 | 10 ft | 7 kts | 45° |
| 2026-05-07 12:50 | 57.12391 | 12.23317 | 11 ft | 8 kts | 335° |
| 2026-05-07 12:50 | 57.12400 | 12.23298 | 10 ft | 0 kts | 298° |
| 2026-05-07 12:52 | 57.12446 | 12.23120 | 11 ft | 40 kts | 296° |
| 2026-05-07 12:52 | 57.12624 | 12.22449 | 109 ft | 66 kts | 294° |
| 2026-05-07 12:52 | 57.12833 | 12.21695 | 371 ft | 66 kts | 295° |
| 2026-05-07 12:53 | 57.13090 | 12.20914 | 563 ft | 78 kts | 310° |
| 2026-05-07 12:53 | 57.13607 | 12.20442 | 748 ft | 92 kts | 345° |
| 2026-05-07 12:53 | 57.14278 | 12.20574 | 944 ft | 101 kts | 11° |
| 2026-05-07 12:53 | 57.14891 | 12.21283 | 1153 ft | 101 kts | 37° |
| 2026-05-07 12:54 | 57.15246 | 12.22390 | 1148 ft | 104 kts | 69° |
| 2026-05-07 12:54 | 57.15378 | 12.23664 | 1416 ft | 94 kts | 79° |
| 2026-05-07 12:54 | 57.15400 | 12.24829 | 1733 ft | 93 kts | 86° |
| 2026-05-07 12:54 | 57.15364 | 12.26044 | 2042 ft | 93 kts | 89° |
| 2026-05-07 12:55 | 57.15310 | 12.27225 | 2324 ft | 94 kts | 93° |
| 2026-05-07 12:55 | 57.15185 | 12.28419 | 2615 ft | 95 kts | 100° |
| 2026-05-07 12:55 | 57.15064 | 12.29570 | 2880 ft | 92 kts | 98° |
| 2026-05-07 12:55 | 57.14973 | 12.30683 | 3163 ft | 85 kts | 95° |
| 2026-05-07 12:56 | 57.14928 | 12.31448 | 3314 ft | 91 kts | 95° |
| 2026-05-07 12:56 | 57.14935 | 12.32899 | 3625 ft | 89 kts | 83° |
| 2026-05-07 12:56 | 57.15094 | 12.34003 | 3872 ft | 92 kts | 63° |
| 2026-05-07 12:56 | 57.15311 | 12.34648 | 4074 ft | 88 kts | 51° |
| 2026-05-07 12:57 | 57.15950 | 12.35579 | 4344 ft | 92 kts | 26° |
| 2026-05-07 12:57 | 57.16566 | 12.35876 | 4590 ft | 92 kts | 9° |
| 2026-05-07 12:57 | 57.16992 | 12.35970 | 4770 ft | 87 kts | 4° |
| 2026-05-07 12:57 | 57.17836 | 12.36012 | 4988 ft | 95 kts | 1° |
| 2026-05-07 12:58 | 57.18288 | 12.36017 | 5048 ft | 99 kts | 0° |
| 2026-05-07 12:58 | 57.19013 | 12.36004 | 5074 ft | 107 kts | 359° |
| 2026-05-07 12:58 | 57.19777 | 12.35941 | 5088 ft | 112 kts | 357° |
| 2026-05-07 12:58 | 57.20572 | 12.35895 | 5110 ft | 114 kts | 358° |
| 2026-05-07 12:59 | 57.21359 | 12.35814 | 5149 ft | 112 kts | 355° |
| 2026-05-07 12:59 | 57.22120 | 12.35655 | 5199 ft | 111 kts | 352° |
| 2026-05-07 12:59 | 57.22911 | 12.35490 | 5170 ft | 114 kts | 354° |
| 2026-05-07 12:59 | 57.23713 | 12.35351 | 5071 ft | 119 kts | 355° |
| 2026-05-07 13:00 | 57.24530 | 12.35236 | 5065 ft | 116 kts | 357° |
| 2026-05-07 13:00 | 57.25330 | 12.35129 | 5076 ft | 115 kts | 356° |
| 2026-05-07 13:00 | 57.26117 | 12.35210 | 5084 ft | 112 kts | 13° |
| 2026-05-07 13:00 | 57.26827 | 12.35812 | 5072 ft | 114 kts | 33° |
| 2026-05-07 13:01 | 57.27458 | 12.36708 | 5083 ft | 115 kts | 38° |
| 2026-05-07 13:01 | 57.28065 | 12.37658 | 5105 ft | 114 kts | 40° |
| 2026-05-07 13:01 | 57.28649 | 12.38664 | 5097 ft | 114 kts | 43° |
| 2026-05-07 13:01 | 57.29230 | 12.39681 | 5095 ft | 115 kts | 41° |
| 2026-05-07 13:02 | 57.29811 | 12.40699 | 5111 ft | 116 kts | 43° |
| 2026-05-07 13:02 | 57.30388 | 12.41732 | 5126 ft | 115 kts | 42° |
| 2026-05-07 13:02 | 57.30970 | 12.42733 | 5159 ft | 114 kts | 42° |
| 2026-05-07 13:02 | 57.31532 | 12.43754 | 5145 ft | 112 kts | 45° |
| 2026-05-07 13:03 | 57.32011 | 12.44910 | 5049 ft | 118 kts | 60° |
| 2026-05-07 13:03 | 57.32404 | 12.46208 | 5081 ft | 113 kts | 60° |
| 2026-05-07 13:03 | 57.32772 | 12.47498 | 5047 ft | 115 kts | 62° |
| 2026-05-07 13:03 | 57.33137 | 12.48810 | 5009 ft | 115 kts | 62° |
| 2026-05-07 13:04 | 57.33488 | 12.50122 | 4997 ft | 113 kts | 65° |
| 2026-05-07 13:04 | 57.33816 | 12.51436 | 4995 ft | 113 kts | 63° |
| 2026-05-07 13:04 | 57.34160 | 12.52746 | 4997 ft | 113 kts | 64° |
| 2026-05-07 13:04 | 57.34510 | 12.54068 | 4963 ft | 115 kts | 62° |
| 2026-05-07 13:05 | 57.34882 | 12.55348 | 4994 ft | 113 kts | 60° |
| 2026-05-07 13:05 | 57.35261 | 12.56649 | 4950 ft | 114 kts | 62° |
| 2026-05-07 13:05 | 57.35631 | 12.57950 | 4916 ft | 114 kts | 62° |
| 2026-05-07 13:05 | 57.35981 | 12.59233 | 4935 ft | 113 kts | 62° |
| 2026-05-07 13:06 | 57.36342 | 12.60558 | 4888 ft | 115 kts | 63° |
| 2026-05-07 13:06 | 57.36680 | 12.61867 | 4927 ft | 111 kts | 65° |
| 2026-05-07 13:06 | 57.36981 | 12.63190 | 4927 ft | 112 kts | 65° |
| 2026-05-07 13:06 | 57.37238 | 12.64581 | 4933 ft | 115 kts | 71° |
| 2026-05-07 13:07 | 57.37451 | 12.66026 | 4932 ft | 116 kts | 72° |
| 2026-05-07 13:07 | 57.37627 | 12.67465 | 4902 ft | 118 kts | 75° |
| 2026-05-07 13:07 | 57.37773 | 12.68988 | 4863 ft | 120 kts | 79° |
| 2026-05-07 13:07 | 57.37865 | 12.70493 | 4891 ft | 117 kts | 81° |
| 2026-05-07 13:08 | 57.37918 | 12.72008 | 4876 ft | 117 kts | 84° |
| 2026-05-07 13:08 | 57.37965 | 12.73508 | 4898 ft | 116 kts | 84° |
| 2026-05-07 13:08 | 57.38007 | 12.75013 | 4877 ft | 116 kts | 83° |
| 2026-05-07 13:08 | 57.38093 | 12.76501 | 4866 ft | 116 kts | 81° |
| 2026-05-07 13:09 | 57.38203 | 12.77963 | 4968 ft | 114 kts | 78° |
| 2026-05-07 13:09 | 57.38326 | 12.79435 | 5002 ft | 116 kts | 76° |
| 2026-05-07 13:09 | 57.38443 | 12.80948 | 4934 ft | 121 kts | 79° |
| 2026-05-07 13:09 | 57.38521 | 12.82464 | 4967 ft | 117 kts | 79° |
| 2026-05-07 13:10 | 57.38593 | 12.84008 | 4958 ft | 121 kts | 81° |
| 2026-05-07 13:10 | 57.38683 | 12.85525 | 5064 ft | 115 kts | 75° |
| 2026-05-07 13:10 | 57.38864 | 12.86967 | 5067 ft | 117 kts | 74° |
| 2026-05-07 13:10 | 57.39066 | 12.88464 | 5047 ft | 118 kts | 73° |
| 2026-05-07 13:11 | 57.39288 | 12.89917 | 5056 ft | 117 kts | 66° |
| 2026-05-07 13:11 | 57.39569 | 12.91270 | 5026 ft | 117 kts | 63° |
| 2026-05-07 13:11 | 57.39935 | 12.92649 | 5020 ft | 117 kts | 57° |
| 2026-05-07 13:11 | 57.40274 | 12.93966 | 4962 ft | 120 kts | 62° |
| 2026-05-07 13:12 | 57.40631 | 12.95359 | 4953 ft | 119 kts | 58° |
| 2026-05-07 13:12 | 57.41001 | 12.96709 | 4980 ft | 117 kts | 59° |
| 2026-05-07 13:12 | 57.41375 | 12.98056 | 4992 ft | 118 kts | 58° |
| 2026-05-07 13:12 | 57.41734 | 12.99431 | 4997 ft | 118 kts | 61° |
| 2026-05-07 13:13 | 57.42084 | 13.00805 | 5002 ft | 117 kts | 61° |
| 2026-05-07 13:13 | 57.42429 | 13.02178 | 4981 ft | 118 kts | 61° |
| 2026-05-07 13:13 | 57.42787 | 13.03568 | 4923 ft | 121 kts | 63° |
| 2026-05-07 13:13 | 57.43114 | 13.05015 | 4896 ft | 123 kts | 64° |
| 2026-05-07 13:14 | 57.43399 | 13.06474 | 4950 ft | 119 kts | 69° |
| 2026-05-07 13:14 | 57.43698 | 13.07898 | 4921 ft | 120 kts | 61° |
| 2026-05-07 13:14 | 57.44053 | 13.09296 | 4910 ft | 119 kts | 60° |
| 2026-05-07 13:14 | 57.44439 | 13.10617 | 4983 ft | 115 kts | 58° |
| 2026-05-07 13:15 | 57.44829 | 13.11925 | 4959 ft | 120 kts | 56° |
| 2026-05-07 13:15 | 57.45205 | 13.13305 | 4908 ft | 120 kts | 61° |
| 2026-05-07 13:15 | 57.45564 | 13.14668 | 4982 ft | 114 kts | 56° |
| 2026-05-07 13:15 | 57.45947 | 13.15972 | 4996 ft | 117 kts | 59° |
| 2026-05-07 13:16 | 57.46338 | 13.17263 | 5023 ft | 113 kts | 54° |
| 2026-05-07 13:16 | 57.46779 | 13.18499 | 5008 ft | 116 kts | 52° |
| 2026-05-07 13:16 | 57.47230 | 13.19742 | 4992 ft | 116 kts | 51° |
| 2026-05-07 13:16 | 57.47692 | 13.20975 | 4975 ft | 116 kts | 51° |
| 2026-05-07 13:17 | 57.48146 | 13.22203 | 4989 ft | 114 kts | 53° |
| 2026-05-07 13:17 | 57.48599 | 13.23427 | 4972 ft | 115 kts | 53° |
| 2026-05-07 13:17 | 57.48981 | 13.24688 | 5085 ft | 111 kts | 55° |
| 2026-05-07 13:17 | 57.49400 | 13.25950 | 5083 ft | 114 kts | 53° |
| 2026-05-07 13:18 | 57.49808 | 13.27204 | 5050 ft | 115 kts | 56° |
| 2026-05-07 13:18 | 57.50223 | 13.28475 | 4993 ft | 116 kts | 52° |
| 2026-05-07 13:18 | 57.50661 | 13.29767 | 4985 ft | 118 kts | 56° |
| 2026-05-07 13:18 | 57.51077 | 13.31077 | 5013 ft | 116 kts | 57° |
| 2026-05-07 13:19 | 57.51473 | 13.32373 | 5061 ft | 114 kts | 56° |
| 2026-05-07 13:19 | 57.51868 | 13.33663 | 5062 ft | 115 kts | 56° |
| 2026-05-07 13:19 | 57.52265 | 13.34975 | 5051 ft | 117 kts | 56° |
| 2026-05-07 13:19 | 57.52664 | 13.36308 | 5036 ft | 117 kts | 59° |
| 2026-05-07 13:20 | 57.53036 | 13.37633 | 5025 ft | 115 kts | 58° |
| 2026-05-07 13:20 | 57.53374 | 13.38987 | 5050 ft | 115 kts | 65° |
| 2026-05-07 13:20 | 57.53671 | 13.40361 | 5027 ft | 114 kts | 62° |
| 2026-05-07 13:20 | 57.53988 | 13.41718 | 5013 ft | 114 kts | 62° |
| 2026-05-07 13:21 | 57.54324 | 13.43043 | 4981 ft | 116 kts | 62° |
| 2026-05-07 13:21 | 57.54666 | 13.44398 | 4966 ft | 115 kts | 62° |
| 2026-05-07 13:21 | 57.55020 | 13.45765 | 4934 ft | 119 kts | 63° |
| 2026-05-07 13:21 | 57.55293 | 13.47245 | 4857 ft | 120 kts | 66° |
| 2026-05-07 13:22 | 57.55582 | 13.48668 | 4891 ft | 115 kts | 62° |
| 2026-05-07 13:22 | 57.55884 | 13.50035 | 4916 ft | 115 kts | 63° |
| 2026-05-07 13:22 | 57.56198 | 13.51412 | 4933 ft | 117 kts | 65° |
| 2026-05-07 13:22 | 57.56506 | 13.52821 | 4899 ft | 116 kts | 63° |
| 2026-05-07 13:23 | 57.56865 | 13.54127 | 4970 ft | 111 kts | 57° |
| 2026-05-07 13:23 | 57.57226 | 13.55407 | 4965 ft | 113 kts | 58° |
| 2026-05-07 13:23 | 57.57594 | 13.56698 | 4943 ft | 115 kts | 59° |
| 2026-05-07 13:23 | 57.57949 | 13.58038 | 4905 ft | 115 kts | 62° |
| 2026-05-07 13:24 | 57.58279 | 13.59402 | 4888 ft | 117 kts | 64° |
| 2026-05-07 13:24 | 57.58562 | 13.60815 | 4916 ft | 115 kts | 65° |
| 2026-05-07 13:24 | 57.58832 | 13.62239 | 4944 ft | 117 kts | 65° |
| 2026-05-07 13:24 | 57.59109 | 13.63661 | 4966 ft | 115 kts | 68° |
| 2026-05-07 13:25 | 57.59370 | 13.65062 | 4955 ft | 113 kts | 66° |
| 2026-05-07 13:25 | 57.59652 | 13.66441 | 4887 ft | 114 kts | 65° |
| 2026-05-07 13:25 | 57.59945 | 13.67822 | 4755 ft | 114 kts | 63° |
| 2026-05-07 13:25 | 57.60261 | 13.69190 | 4604 ft | 114 kts | 62° |
| 2026-05-07 13:26 | 57.60568 | 13.70549 | 4516 ft | 115 kts | 64° |
| 2026-05-07 13:26 | 57.60870 | 13.71918 | 4391 ft | 115 kts | 60° |
| 2026-05-07 13:26 | 57.61224 | 13.73236 | 4289 ft | 117 kts | 62° |
| 2026-05-07 13:26 | 57.61573 | 13.74637 | 4152 ft | 121 kts | 63° |
| 2026-05-07 13:27 | 57.61897 | 13.76066 | 4026 ft | 118 kts | 65° |
| 2026-05-07 13:27 | 57.62212 | 13.77452 | 3989 ft | 112 kts | 61° |
| 2026-05-07 13:27 | 57.62543 | 13.78817 | 3763 ft | 115 kts | 62° |
| 2026-05-07 13:27 | 57.62894 | 13.80149 | 3605 ft | 114 kts | 58° |
| 2026-05-07 13:28 | 57.63271 | 13.81437 | 3472 ft | 111 kts | 56° |
| 2026-05-07 13:28 | 57.63662 | 13.82670 | 3330 ft | 111 kts | 56° |
| 2026-05-07 13:28 | 57.64025 | 13.83941 | 3158 ft | 112 kts | 60° |
| 2026-05-07 13:28 | 57.64357 | 13.85251 | 3155 ft | 110 kts | 60° |
| 2026-05-07 13:29 | 57.64668 | 13.86584 | 3044 ft | 112 kts | 60° |
| 2026-05-07 13:29 | 57.65004 | 13.87902 | 2915 ft | 113 kts | 61° |
| 2026-05-07 13:29 | 57.65325 | 13.89228 | 2784 ft | 114 kts | 59° |
| 2026-05-07 13:29 | 57.65665 | 13.90571 | 2684 ft | 113 kts | 57° |
| 2026-05-07 13:30 | 57.66030 | 13.91859 | 2595 ft | 110 kts | 56° |
| 2026-05-07 13:30 | 57.66453 | 13.93008 | 2462 ft | 108 kts | 44° |
| 2026-05-07 13:30 | 57.67040 | 13.93848 | 2397 ft | 102 kts | 25° |
| 2026-05-07 13:30 | 57.67670 | 13.94464 | 2321 ft | 103 kts | 35° |
| 2026-05-07 13:31 | 57.68167 | 13.95398 | 2275 ft | 103 kts | 42° |
| 2026-05-07 13:31 | 57.68636 | 13.96365 | 2238 ft | 96 kts | 43° |
| 2026-05-07 13:31 | 57.69043 | 13.97282 | 2206 ft | 90 kts | 49° |
| 2026-05-07 13:31 | 57.69414 | 13.98238 | 2120 ft | 92 kts | 50° |
| 2026-05-07 13:32 | 57.69783 | 13.99227 | 2024 ft | 92 kts | 52° |
| 2026-05-07 13:32 | 57.70175 | 14.00126 | 1920 ft | 88 kts | 44° |
| 2026-05-07 13:32 | 57.70553 | 14.00977 | 1908 ft | 83 kts | 46° |
| 2026-05-07 13:32 | 57.70931 | 14.01801 | 1831 ft | 83 kts | 41° |
| 2026-05-07 13:33 | 57.71334 | 14.02572 | 1786 ft | 83 kts | 36° |
| 2026-05-07 13:33 | 57.71762 | 14.03267 | 1691 ft | 80 kts | 37° |
| 2026-05-07 13:33 | 57.72181 | 14.03930 | 1545 ft | 77 kts | 36° |
| 2026-05-07 13:33 | 57.72605 | 14.04524 | 1366 ft | 75 kts | 32° |
| 2026-05-07 13:34 | 57.73054 | 14.05054 | 1138 ft | 74 kts | 29° |
| 2026-05-07 13:34 | 57.73918 | 14.05724 | 979 ft | 67 kts | 25° |
| 2026-05-07 13:34 | 57.74352 | 14.05998 | 901 ft | 64 kts | 25° |
| 2026-05-07 13:35 | 57.74752 | 14.06256 | 784 ft | 57 kts | 23° |
| 2026-05-07 13:35 | 57.75111 | 14.06466 | 745 ft | 48 kts | 28° |
| 2026-05-07 13:35 | 57.75285 | 14.06585 | 744 ft | 6 kts | 30° |
| 2026-05-07 13:35 | 57.75297 | 14.06641 | 745 ft | 4 kts | 92° |
| 2026-05-07 13:36 | 57.75285 | 14.06698 | 745 ft | 5 kts | 117° |
| 2026-05-07 13:36 | 57.75263 | 14.06795 | 745 ft | 10 kts | 113° |
| 2026-05-07 13:36 | 57.75228 | 14.06941 | 745 ft | 14 kts | 114° |
| 2026-05-07 13:36 | 57.75206 | 14.07049 | 745 ft | 6 kts | 109° |
| 2026-05-07 13:37 | 57.75197 | 14.07124 | 745 ft | 7 kts | 84° |
| 2026-05-07 13:37 | 57.75195 | 14.07192 | 745 ft | 9 kts | 93° |
| 2026-05-07 13:37 | 57.75185 | 14.07323 | 745 ft | 11 kts | 100° |
| 2026-05-07 13:37 | 57.75154 | 14.07465 | 745 ft | 9 kts | 114° |
| 2026-05-07 13:38 | 57.75149 | 14.07486 | 745 ft | 2 kts | 123° |
| 2026-05-07 13:38 | 57.75117 | 14.07490 | 745 ft | 5 kts | 172° |
| 2026-05-07 13:38 | 57.75104 | 14.07497 | 744 ft | 0 kts | 159° |